createdAt,value
2017-12-31T00:02:19.955Z,84.20
2017-12-31T00:04:47.514Z,83.90
2017-12-31T00:07:15.064Z,83.50
2017-12-31T00:09:43.407Z,82.60
2017-12-31T00:12:10.966Z,82.70
2017-12-31T00:14:38.529Z,82.10
2017-12-31T00:17:06.926Z,81.50
2017-12-31T00:19:34.493Z,81.40
2017-12-31T00:22:02.089Z,80.70
2017-12-31T00:24:29.651Z,79.90
2017-12-31T00:26:57.214Z,79.60
2017-12-31T00:29:24.811Z,79.40
2017-12-31T00:31:52.365Z,79.20
2017-12-31T00:34:19.926Z,78.50
2017-12-31T00:36:47.492Z,78.30
2017-12-31T00:39:15.048Z,78.10
2017-12-31T00:41:42.639Z,77.70
2017-12-31T00:44:10.961Z,77.40
2017-12-31T00:46:38.516Z,77.40
2017-12-31T00:49:06.094Z,76.60
2017-12-31T00:51:33.654Z,76.60
2017-12-31T00:54:01.240Z,76.30
2017-12-31T00:56:28.792Z,76.10
2017-12-31T00:58:56.355Z,75.50
2017-12-31T01:01:23.995Z,75.20
2017-12-31T01:03:51.541Z,74.10
2017-12-31T01:06:19.102Z,73.90
2017-12-31T01:08:46.682Z,73.50
2017-12-31T01:11:14.252Z,73.50
2017-12-31T01:13:41.821Z,71.90
2017-12-31T01:16:09.382Z,72.10
2017-12-31T01:18:36.946Z,72.10
2017-12-31T01:21:04.531Z,72.30
2017-12-31T01:23:32.082Z,71.90
2017-12-31T01:26:00.394Z,71.50
2017-12-31T01:28:27.977Z,71.50
2017-12-31T01:30:55.533Z,71.10
2017-12-31T01:33:23.089Z,70.40
2017-12-31T01:35:52.681Z,69.70
2017-12-31T01:38:22.245Z,69.30
2017-12-31T01:40:50.579Z,68.00
2017-12-31T01:43:18.171Z,68.00
2017-12-31T01:45:45.720Z,67.60
2017-12-31T01:48:13.300Z,67.50
2017-12-31T01:50:41.629Z,66.90
2017-12-31T01:53:09.164Z,66.70
2017-12-31T01:55:36.721Z,67.00
2017-12-31T01:58:04.290Z,66.90
2017-12-31T02:00:31.850Z,67.10
2017-12-31T02:02:59.439Z,67.20
2017-12-31T02:05:27.008Z,67.90
2017-12-31T02:07:54.556Z,66.80
2017-12-31T02:10:22.128Z,67.20
2017-12-31T02:12:49.680Z,67.00
2017-12-31T02:15:17.218Z,66.80
2017-12-31T02:17:44.789Z,66.50
2017-12-31T02:20:12.351Z,66.80
2017-12-31T02:22:39.917Z,66.60
2017-12-31T02:25:07.488Z,66.90
2017-12-31T02:27:35.054Z,66.60
2017-12-31T02:30:02.635Z,66.60
2017-12-31T02:32:30.971Z,66.80
2017-12-31T02:34:58.544Z,66.80
2017-12-31T02:37:26.150Z,67.00
2017-12-31T02:39:53.689Z,66.90
2017-12-31T02:42:22.019Z,66.60
2017-12-31T02:44:49.619Z,66.70
2017-12-31T02:47:17.938Z,66.60
2017-12-31T02:49:45.498Z,66.60
2017-12-31T02:52:13.069Z,66.20
2017-12-31T02:54:40.638Z,66.40
2017-12-31T02:57:08.179Z,66.20
2017-12-31T02:59:35.753Z,65.60
2017-12-31T03:02:03.305Z,65.30
2017-12-31T03:04:30.899Z,65.00
2017-12-31T03:06:58.457Z,65.50
2017-12-31T03:09:25.996Z,65.50
2017-12-31T03:11:53.565Z,65.40
2017-12-31T03:14:21.120Z,65.20
2017-12-31T03:16:48.716Z,65.40
2017-12-31T03:19:17.047Z,64.40
2017-12-31T03:21:44.592Z,64.40
2017-12-31T03:24:12.169Z,64.70
2017-12-31T03:26:39.754Z,63.90
2017-12-31T03:29:08.115Z,63.70
2017-12-31T03:31:35.682Z,63.70
2017-12-31T03:34:03.243Z,63.80
2017-12-31T03:36:30.798Z,63.50
2017-12-31T03:38:59.128Z,62.60
2017-12-31T03:41:26.688Z,62.50
2017-12-31T03:43:54.266Z,62.20
2017-12-31T03:46:21.821Z,62.40
2017-12-31T03:48:49.399Z,61.70
2017-12-31T03:51:16.954Z,62.20
2017-12-31T03:53:44.507Z,61.40
2017-12-31T03:56:12.093Z,61.40
2017-12-31T03:58:39.635Z,61.60
2017-12-31T04:01:07.233Z,61.50
2017-12-31T04:03:34.778Z,60.70
2017-12-31T04:06:02.365Z,60.90
2017-12-31T04:08:30.687Z,60.50
2017-12-31T04:10:58.251Z,60.50
2017-12-31T04:13:25.809Z,60.80
2017-12-31T04:15:53.380Z,60.50
2017-12-31T04:18:20.941Z,60.80
2017-12-31T04:20:48.479Z,60.40
2017-12-31T04:23:16.042Z,61.00
2017-12-31T04:25:43.593Z,61.10
2017-12-31T04:28:11.180Z,61.40
2017-12-31T04:30:38.720Z,61.10
2017-12-31T04:33:06.290Z,61.20
2017-12-31T04:35:33.837Z,61.20
2017-12-31T04:38:01.424Z,61.00
2017-12-31T04:40:28.988Z,61.00
2017-12-31T04:42:56.525Z,61.10
2017-12-31T04:45:24.100Z,61.00
2017-12-31T04:47:51.658Z,60.20
2017-12-31T04:50:19.221Z,60.10
2017-12-31T04:52:46.770Z,60.10
2017-12-31T04:55:14.352Z,59.90
2017-12-31T04:57:41.900Z,60.10
2017-12-31T05:00:09.484Z,60.00
2017-12-31T05:02:37.796Z,61.00
2017-12-31T05:05:05.373Z,60.30
2017-12-31T05:07:32.976Z,59.80
2017-12-31T05:10:00.517Z,60.00
2017-12-31T05:12:28.090Z,60.10
2017-12-31T05:14:55.647Z,60.00
2017-12-31T05:17:23.222Z,60.10
2017-12-31T05:19:51.536Z,60.80
2017-12-31T05:22:19.091Z,59.90
2017-12-31T05:24:46.637Z,59.30
2017-12-31T05:27:14.207Z,59.80
2017-12-31T05:29:41.757Z,59.30
2017-12-31T05:32:10.203Z,59.60
2017-12-31T05:34:37.775Z,60.00
2017-12-31T05:37:06.084Z,59.30
2017-12-31T05:39:33.671Z,59.30
2017-12-31T05:42:01.229Z,59.40
2017-12-31T05:44:28.790Z,59.10
2017-12-31T05:46:56.345Z,59.00
2017-12-31T05:49:23.906Z,59.50
2017-12-31T05:51:51.479Z,58.80
2017-12-31T05:54:19.047Z,59.10
2017-12-31T05:56:46.610Z,59.30
2017-12-31T05:59:14.168Z,59.50
2017-12-31T06:01:41.732Z,59.20
2017-12-31T06:04:09.286Z,59.00
2017-12-31T06:06:36.858Z,59.60
2017-12-31T06:09:04.418Z,59.70
2017-12-31T06:11:31.993Z,59.50
2017-12-31T06:14:00.301Z,59.00
2017-12-31T06:16:27.869Z,59.00
2017-12-31T06:18:55.426Z,59.30
2017-12-31T06:21:22.964Z,59.40
2017-12-31T06:23:51.295Z,59.40
2017-12-31T06:26:18.865Z,59.40
2017-12-31T06:28:46.456Z,60.00
2017-12-31T06:31:14.787Z,59.60
2017-12-31T06:33:42.362Z,59.60
2017-12-31T06:36:09.904Z,59.90
2017-12-31T06:38:37.465Z,59.90
2017-12-31T06:41:05.016Z,60.00
2017-12-31T06:43:32.588Z,60.50
2017-12-31T06:46:00.153Z,60.80
2017-12-31T06:48:27.700Z,61.10
2017-12-31T06:50:55.274Z,61.20
2017-12-31T06:53:22.829Z,62.20
2017-12-31T06:55:50.406Z,61.70
2017-12-31T06:58:17.979Z,60.90
2017-12-31T07:00:46.334Z,61.50
2017-12-31T07:03:13.876Z,61.50
2017-12-31T07:05:41.419Z,60.70
2017-12-31T07:08:08.997Z,61.00
2017-12-31T07:10:36.593Z,60.80
2017-12-31T07:13:04.921Z,62.00
2017-12-31T07:15:32.460Z,61.10
2017-12-31T07:18:00.045Z,61.00
2017-12-31T07:20:27.608Z,61.30
2017-12-31T07:22:55.184Z,61.00
2017-12-31T07:25:22.747Z,60.80
2017-12-31T07:27:50.332Z,60.90
2017-12-31T07:30:18.671Z,60.50
2017-12-31T07:32:46.218Z,60.50
2017-12-31T07:35:13.777Z,60.80
2017-12-31T07:37:41.331Z,60.90
2017-12-31T07:40:08.914Z,60.80
2017-12-31T07:42:36.484Z,61.10
2017-12-31T07:45:04.043Z,62.00
2017-12-31T07:47:31.586Z,61.30
2017-12-31T07:49:59.170Z,61.10
2017-12-31T07:52:26.742Z,61.20
2017-12-31T07:54:55.071Z,61.20
2017-12-31T07:57:22.661Z,61.20
2017-12-31T07:59:50.226Z,60.80
2017-12-31T08:02:17.783Z,60.80
2017-12-31T08:04:45.350Z,61.10
2017-12-31T08:07:12.939Z,61.50
2017-12-31T08:09:40.501Z,60.20
2017-12-31T08:12:08.076Z,60.30
2017-12-31T08:14:35.651Z,60.50
2017-12-31T08:17:03.237Z,60.20
2017-12-31T08:19:30.799Z,59.60
2017-12-31T08:21:58.356Z,59.70
2017-12-31T08:24:25.954Z,59.10
2017-12-31T08:26:54.262Z,58.60
2017-12-31T08:29:21.829Z,58.50
2017-12-31T08:31:49.393Z,58.30
2017-12-31T08:34:17.105Z,56.40
2017-12-31T08:36:45.445Z,56.70
2017-12-31T08:39:12.991Z,56.70
2017-12-31T08:41:40.579Z,56.20
2017-12-31T08:44:08.151Z,56.50
2017-12-31T08:46:36.520Z,55.70
2017-12-31T08:49:04.102Z,55.70
2017-12-31T08:51:32.441Z,54.50
2017-12-31T08:54:00.023Z,54.40
2017-12-31T08:56:28.381Z,54.70
2017-12-31T08:58:55.928Z,54.70
2017-12-31T09:01:23.498Z,54.80
2017-12-31T09:03:51.073Z,52.60
2017-12-31T09:06:18.620Z,54.00
2017-12-31T09:08:46.188Z,52.30
2017-12-31T09:11:13.754Z,54.30
2017-12-31T09:13:41.329Z,53.90
2017-12-31T09:16:09.672Z,53.60
2017-12-31T09:18:37.284Z,53.50
2017-12-31T09:21:04.842Z,51.40
2017-12-31T09:23:33.175Z,53.80
2017-12-31T09:26:00.781Z,53.80
2017-12-31T09:28:28.308Z,51.90
2017-12-31T09:30:55.885Z,52.00
2017-12-31T09:33:24.231Z,52.40
2017-12-31T09:35:51.787Z,52.30
2017-12-31T09:38:19.345Z,51.30
2017-12-31T09:40:46.922Z,50.90
2017-12-31T09:43:14.532Z,50.40
2017-12-31T09:45:43.401Z,51.40
2017-12-31T09:48:11.054Z,52.00
2017-12-31T09:50:39.382Z,48.50
2017-12-31T09:53:06.963Z,48.50
2017-12-31T09:55:34.534Z,50.00
2017-12-31T09:58:02.126Z,50.50
2017-12-31T10:00:29.683Z,50.30
2017-12-31T10:02:58.017Z,49.30
2017-12-31T10:05:25.563Z,49.30
2017-12-31T10:07:53.137Z,49.30
2017-12-31T10:10:21.457Z,47.80
2017-12-31T10:12:49.816Z,48.80
2017-12-31T10:15:18.172Z,48.70
2017-12-31T10:17:45.734Z,48.70
2017-12-31T10:20:13.300Z,49.30
2017-12-31T10:22:40.857Z,49.20
2017-12-31T10:25:08.416Z,48.70
2017-12-31T10:27:35.980Z,49.10
2017-12-31T10:30:03.556Z,49.50
2017-12-31T10:32:31.882Z,49.80
2017-12-31T10:34:59.498Z,49.70
2017-12-31T10:37:27.826Z,49.60
2017-12-31T10:39:56.360Z,49.50
2017-12-31T10:42:24.004Z,50.00
2017-12-31T10:44:51.574Z,49.30
2017-12-31T10:47:19.917Z,49.40
2017-12-31T10:49:47.461Z,49.30
2017-12-31T10:52:15.039Z,49.60
2017-12-31T10:54:42.584Z,49.60
2017-12-31T10:57:10.171Z,49.00
2017-12-31T10:59:37.734Z,50.00
2017-12-31T11:02:05.311Z,49.20
2017-12-31T11:04:33.649Z,48.80
2017-12-31T11:07:01.207Z,48.80
2017-12-31T11:09:28.782Z,48.00
2017-12-31T11:11:56.333Z,48.10
2017-12-31T11:14:23.895Z,47.90
2017-12-31T11:16:51.467Z,47.30
2017-12-31T11:19:19.043Z,48.40
2017-12-31T11:21:47.377Z,47.60
2017-12-31T11:24:14.944Z,47.60
2017-12-31T11:26:42.516Z,47.50
2017-12-31T11:29:10.091Z,47.50
2017-12-31T11:31:37.653Z,48.40
2017-12-31T11:34:05.223Z,48.00
2017-12-31T11:36:33.593Z,48.00
2017-12-31T11:39:01.149Z,48.00
2017-12-31T11:41:28.740Z,47.70
2017-12-31T11:43:56.282Z,47.60
2017-12-31T11:46:24.614Z,47.80
2017-12-31T11:48:52.156Z,47.80
2017-12-31T11:51:19.731Z,47.70
2017-12-31T11:53:47.301Z,47.90
2017-12-31T11:56:14.853Z,47.40
2017-12-31T11:58:42.441Z,47.30
2017-12-31T12:01:10.008Z,47.20
2017-12-31T12:03:37.618Z,48.30
2017-12-31T12:06:05.217Z,47.40
2017-12-31T12:08:32.790Z,47.60
2017-12-31T12:11:01.123Z,48.00
2017-12-31T12:13:28.684Z,47.90
2017-12-31T12:15:56.258Z,48.00
2017-12-31T12:18:23.820Z,47.20
2017-12-31T12:20:51.396Z,47.10
2017-12-31T12:23:18.950Z,45.90
2017-12-31T12:25:46.527Z,46.40
2017-12-31T12:28:14.871Z,46.90
2017-12-31T12:30:42.474Z,46.90
2017-12-31T12:33:10.809Z,48.40
2017-12-31T12:35:38.378Z,48.30
2017-12-31T12:38:05.954Z,47.70
2017-12-31T12:40:33.518Z,46.70
2017-12-31T12:43:01.850Z,46.50
2017-12-31T12:45:29.420Z,46.20
2017-12-31T12:47:57.799Z,46.60
2017-12-31T12:50:25.346Z,46.70
2017-12-31T12:52:52.914Z,46.30
2017-12-31T12:55:20.488Z,45.90
2017-12-31T12:57:48.059Z,45.80
2017-12-31T13:00:15.622Z,45.80
2017-12-31T13:02:43.224Z,45.60
2017-12-31T13:05:10.794Z,46.80
2017-12-31T13:07:38.335Z,46.30
2017-12-31T13:10:06.655Z,45.90
2017-12-31T13:12:34.197Z,45.90
2017-12-31T13:15:01.769Z,46.10
2017-12-31T13:17:29.543Z,45.30
2017-12-31T13:19:57.224Z,44.80
2017-12-31T13:22:24.814Z,44.60
2017-12-31T13:24:53.147Z,44.70
2017-12-31T13:27:20.687Z,44.60
2017-12-31T13:29:48.293Z,44.40
2017-12-31T13:32:15.876Z,44.90
2017-12-31T13:34:43.489Z,44.50
2017-12-31T13:37:11.103Z,44.90
2017-12-31T13:39:38.674Z,44.10
2017-12-31T13:42:06.363Z,44.50
2017-12-31T13:44:33.943Z,44.90
2017-12-31T13:47:01.517Z,44.70
2017-12-31T13:49:29.870Z,45.80
2017-12-31T13:51:57.426Z,45.30
2017-12-31T13:54:24.997Z,45.10
2017-12-31T13:56:52.557Z,45.00
2017-12-31T13:59:20.119Z,45.60
2017-12-31T14:01:47.675Z,45.50
2017-12-31T14:04:15.231Z,45.90
2017-12-31T14:06:42.789Z,46.20
2017-12-31T14:09:10.365Z,46.20
2017-12-31T14:11:37.916Z,46.50
2017-12-31T14:14:05.502Z,47.50
2017-12-31T14:16:33.821Z,47.60
2017-12-31T14:19:01.383Z,47.60
2017-12-31T14:21:28.949Z,47.80
2017-12-31T14:23:56.571Z,48.10
2017-12-31T14:26:24.155Z,48.50
2017-12-31T14:28:51.699Z,48.90
2017-12-31T14:31:19.288Z,49.20
2017-12-31T14:33:46.849Z,49.40
2017-12-31T14:36:16.754Z,49.40
2017-12-31T14:38:44.560Z,49.50
2017-12-31T14:41:12.836Z,49.80
2017-12-31T14:43:40.401Z,50.20
2017-12-31T14:46:07.989Z,50.00
2017-12-31T14:48:35.585Z,50.60
2017-12-31T14:51:03.152Z,50.80
2017-12-31T14:53:30.734Z,51.10
2017-12-31T14:55:58.302Z,51.10
2017-12-31T14:58:26.638Z,52.10
2017-12-31T15:00:54.207Z,52.10
2017-12-31T15:03:21.785Z,52.50
2017-12-31T15:05:49.346Z,52.60
2017-12-31T15:08:16.921Z,53.00
2017-12-31T15:10:45.267Z,53.50
2017-12-31T15:13:12.825Z,53.50
2017-12-31T15:15:40.404Z,53.80
2017-12-31T15:18:08.735Z,53.80
2017-12-31T15:20:36.303Z,53.80
2017-12-31T15:23:03.866Z,53.70
2017-12-31T15:25:31.470Z,53.90
2017-12-31T15:27:59.047Z,53.70
2017-12-31T15:30:27.363Z,54.30
2017-12-31T15:32:54.941Z,53.60
2017-12-31T15:35:22.521Z,53.60
2017-12-31T15:37:50.107Z,53.50
2017-12-31T15:40:18.430Z,53.30
2017-12-31T15:42:46.004Z,53.30
2017-12-31T15:45:13.569Z,53.40
2017-12-31T15:47:41.140Z,53.40
2017-12-31T15:50:08.702Z,53.70
2017-12-31T15:52:36.256Z,53.60
2017-12-31T15:55:03.819Z,54.00
2017-12-31T15:57:32.630Z,55.10
2017-12-31T16:00:00.970Z,54.70
2017-12-31T16:02:28.537Z,54.70
2017-12-31T16:04:56.125Z,54.90
2017-12-31T16:07:23.733Z,55.00
2017-12-31T16:09:51.305Z,55.30
2017-12-31T16:12:18.852Z,55.70
2017-12-31T16:14:46.454Z,56.20
2017-12-31T16:17:14.885Z,58.10
2017-12-31T16:19:42.426Z,58.10
2017-12-31T16:22:10.011Z,58.40
2017-12-31T16:24:37.586Z,59.30
2017-12-31T16:27:05.161Z,60.00
2017-12-31T16:29:32.717Z,60.10
2017-12-31T16:32:00.308Z,61.50
2017-12-31T16:34:27.925Z,61.50
2017-12-31T16:36:55.516Z,63.20
2017-12-31T16:39:23.862Z,62.30
2017-12-31T16:41:51.426Z,62.20
2017-12-31T16:44:18.991Z,62.70
2017-12-31T16:46:46.545Z,63.10
2017-12-31T16:49:14.127Z,63.40
2017-12-31T16:51:42.449Z,63.60
2017-12-31T16:54:10.058Z,63.60
2017-12-31T16:56:37.607Z,63.80
2017-12-31T16:59:06.445Z,64.00
2017-12-31T17:01:34.111Z,63.80
2017-12-31T17:04:01.718Z,63.70
2017-12-31T17:06:29.273Z,64.40
2017-12-31T17:08:56.831Z,64.40
2017-12-31T17:11:24.415Z,64.90
2017-12-31T17:13:52.732Z,65.20
2017-12-31T17:16:20.322Z,65.20
2017-12-31T17:18:47.896Z,64.20
2017-12-31T17:21:15.498Z,64.30
2017-12-31T17:23:43.065Z,64.40
2017-12-31T17:26:10.665Z,64.60
2017-12-31T17:28:38.206Z,64.80
2017-12-31T17:31:06.664Z,65.40
2017-12-31T17:33:34.315Z,64.80
2017-12-31T17:36:01.896Z,65.30
2017-12-31T17:38:29.479Z,64.70
2017-12-31T17:40:57.036Z,65.50
2017-12-31T17:43:24.615Z,65.70
2017-12-31T17:45:52.156Z,66.30
2017-12-31T17:48:19.772Z,67.00
2017-12-31T17:50:48.086Z,66.90
2017-12-31T17:53:15.665Z,66.90
2017-12-31T17:55:43.240Z,66.30
2017-12-31T17:58:10.800Z,66.40
2017-12-31T18:00:38.373Z,66.30
2017-12-31T18:03:06.698Z,66.70
2017-12-31T18:05:34.279Z,66.70
2017-12-31T18:08:01.822Z,67.00
2017-12-31T18:10:29.382Z,67.10
2017-12-31T18:12:56.955Z,66.90
2017-12-31T18:15:25.322Z,67.90
2017-12-31T18:17:52.893Z,68.60
2017-12-31T18:20:20.436Z,67.80
2017-12-31T18:22:47.994Z,67.20
2017-12-31T18:25:15.560Z,66.60
2017-12-31T18:27:43.126Z,66.90
2017-12-31T18:30:10.688Z,67.20
2017-12-31T18:32:38.251Z,67.30
2017-12-31T18:35:05.815Z,67.10
2017-12-31T18:37:33.402Z,66.90
2017-12-31T18:40:01.730Z,67.90
2017-12-31T18:42:29.315Z,67.90
2017-12-31T18:44:56.869Z,67.60
2017-12-31T18:47:24.421Z,67.10
2017-12-31T18:49:51.975Z,67.60
2017-12-31T18:52:19.515Z,67.50
2017-12-31T18:54:47.084Z,67.40
2017-12-31T18:57:14.633Z,67.30
2017-12-31T18:59:42.215Z,67.90
2017-12-31T19:02:09.771Z,68.80
2017-12-31T19:04:37.359Z,68.90
2017-12-31T19:07:04.934Z,69.90
2017-12-31T19:09:33.267Z,69.30
2017-12-31T19:12:00.842Z,69.20
2017-12-31T19:14:28.397Z,70.00
2017-12-31T19:16:55.977Z,70.00
2017-12-31T19:19:23.543Z,69.80
2017-12-31T19:21:51.105Z,69.50
2017-12-31T19:24:18.664Z,69.80
2017-12-31T19:26:46.246Z,70.40
2017-12-31T19:29:14.562Z,70.50
2017-12-31T19:31:42.147Z,70.40
2017-12-31T19:34:09.701Z,70.60
2017-12-31T19:36:37.246Z,69.70
2017-12-31T19:39:04.823Z,70.10
2017-12-31T19:41:32.385Z,70.70
2017-12-31T19:43:59.946Z,69.20
2017-12-31T19:46:27.501Z,69.00
2017-12-31T19:48:55.091Z,69.20
2017-12-31T19:51:23.488Z,70.10
2017-12-31T19:53:51.071Z,70.00
2017-12-31T19:56:18.617Z,69.40
2017-12-31T19:58:46.193Z,69.00
2017-12-31T20:01:13.783Z,69.10
2017-12-31T20:03:41.351Z,69.10
2017-12-31T20:06:08.928Z,70.30
2017-12-31T20:08:37.257Z,69.80
2017-12-31T20:11:04.824Z,69.70
2017-12-31T20:13:32.361Z,69.10
2017-12-31T20:15:59.946Z,69.10
2017-12-31T20:18:27.497Z,69.40
2017-12-31T20:20:55.084Z,69.40
2017-12-31T20:23:22.639Z,70.20
2017-12-31T20:25:50.197Z,70.00
2017-12-31T20:28:17.773Z,70.60
2017-12-31T20:30:46.096Z,70.40
2017-12-31T20:33:13.674Z,70.40
2017-12-31T20:35:41.242Z,71.00
2017-12-31T20:38:08.803Z,70.70
2017-12-31T20:40:36.382Z,71.30
2017-12-31T20:43:03.967Z,72.50
2017-12-31T20:45:31.535Z,72.20
2017-12-31T20:47:59.100Z,71.10
2017-12-31T20:50:26.663Z,72.20
2017-12-31T20:52:54.208Z,72.70
2017-12-31T20:55:21.857Z,72.70
2017-12-31T20:57:50.185Z,72.50
2017-12-31T21:00:17.758Z,72.50
2017-12-31T21:02:45.328Z,72.20
2017-12-31T21:05:12.904Z,71.10
2017-12-31T21:07:40.479Z,71.50
2017-12-31T21:10:08.792Z,71.20
2017-12-31T21:12:36.357Z,71.20
2017-12-31T21:15:03.921Z,71.10
2017-12-31T21:17:31.518Z,71.10
2017-12-31T21:19:59.086Z,70.80
2017-12-31T21:22:27.430Z,70.70
2017-12-31T21:24:54.994Z,70.70
2017-12-31T21:27:22.599Z,70.90
2017-12-31T21:29:50.929Z,70.30
2017-12-31T21:32:18.505Z,70.30
2017-12-31T21:34:46.054Z,70.70
2017-12-31T21:37:13.605Z,70.20
2017-12-31T21:39:41.181Z,70.00
2017-12-31T21:42:08.740Z,70.00
2017-12-31T21:44:36.328Z,69.70
2017-12-31T21:47:04.639Z,70.00
2017-12-31T21:49:32.203Z,70.00
2017-12-31T21:51:59.787Z,69.80
2017-12-31T21:54:27.369Z,69.20
2017-12-31T21:56:54.930Z,68.60
2017-12-31T21:59:23.260Z,69.10
2017-12-31T22:01:50.843Z,68.80
2017-12-31T22:04:18.423Z,69.00
2017-12-31T22:06:46.002Z,69.90
2017-12-31T22:09:14.307Z,70.20
2017-12-31T22:11:41.881Z,70.20
2017-12-31T22:14:09.420Z,70.60
2017-12-31T22:16:36.990Z,70.70
2017-12-31T22:19:04.559Z,70.60
2017-12-31T22:21:32.149Z,71.00
2017-12-31T22:23:59.708Z,70.50
2017-12-31T22:26:27.279Z,70.50
2017-12-31T22:28:54.853Z,72.00
2017-12-31T22:31:23.173Z,72.00
2017-12-31T22:33:50.736Z,71.90
2017-12-31T22:36:18.302Z,70.90
2017-12-31T22:38:45.890Z,69.80
2017-12-31T22:41:13.458Z,69.80
2017-12-31T22:43:41.792Z,71.10
2017-12-31T22:46:09.347Z,71.10
2017-12-31T22:48:36.923Z,71.60
2017-12-31T22:51:04.492Z,71.10
2017-12-31T22:53:32.054Z,71.50
2017-12-31T22:55:59.625Z,71.10
2017-12-31T22:58:27.203Z,71.70
2017-12-31T23:00:57.104Z,72.10
2017-12-31T23:03:25.649Z,75.50
2017-12-31T23:05:53.220Z,75.50
2017-12-31T23:08:20.764Z,79.90
2017-12-31T23:10:48.331Z,80.00
2017-12-31T23:13:15.889Z,80.80
2017-12-31T23:15:43.454Z,80.90
2017-12-31T23:18:11.038Z,81.40
2017-12-31T23:20:38.579Z,81.10
2017-12-31T23:23:06.151Z,80.20
2017-12-31T23:25:33.705Z,81.40
2017-12-31T23:28:01.273Z,82.30
2017-12-31T23:30:28.815Z,82.30
2017-12-31T23:32:56.403Z,82.80
2017-12-31T23:35:23.966Z,82.30
2017-12-31T23:37:51.543Z,81.30
2017-12-31T23:40:20.142Z,81.50
2017-12-31T23:42:47.723Z,81.50
2017-12-31T23:45:15.280Z,82.40
2017-12-31T23:47:42.837Z,82.70
2017-12-31T23:50:10.399Z,84.60
2017-12-31T23:52:37.946Z,84.50
2017-12-31T23:55:05.529Z,84.00
2017-12-31T23:57:33.066Z,84.00
